createdAt,value
2024-04-24T00:03:06.821Z,5.05
2024-04-24T00:06:51.458Z,7.50
2024-04-24T00:10:33.525Z,3.95
2024-04-24T00:14:15.557Z,4.93
2024-04-24T00:17:57.618Z,6.53
2024-04-24T00:21:39.553Z,11.15
2024-04-24T00:25:21.558Z,4.25
2024-04-24T00:29:03.594Z,6.70
2024-04-24T00:32:45.649Z,7.25
2024-04-24T00:36:31.144Z,5.30
2024-04-24T00:40:13.576Z,3.55
2024-04-24T00:43:55.578Z,5.32
2024-04-24T00:47:39.934Z,5.47
2024-04-24T00:51:24.360Z,7.57
2024-04-24T00:55:06.731Z,8.52
2024-04-24T00:58:49.265Z,8.70
2024-04-24T01:02:31.417Z,5.00
2024-04-24T01:06:13.325Z,6.30
2024-04-24T01:09:55.415Z,7.05
2024-04-24T01:13:37.502Z,7.07
2024-04-24T01:17:20.230Z,8.82
2024-04-24T01:21:04.453Z,7.55
2024-04-24T01:24:57.861Z,6.70
2024-04-24T01:28:40.088Z,8.13
2024-04-24T01:32:22.104Z,7.72
2024-04-24T01:36:04.417Z,6.68
2024-04-24T01:39:46.390Z,11.63
2024-04-24T01:43:28.351Z,8.27
2024-04-24T01:47:10.416Z,9.40
2024-04-24T01:50:52.422Z,8.50
2024-04-24T01:54:34.362Z,9.45
2024-04-24T01:58:16.437Z,6.40
2024-04-24T02:01:58.460Z,10.98
2024-04-24T02:05:40.437Z,7.75
2024-04-24T02:09:22.450Z,13.82
2024-04-24T02:13:04.668Z,7.35
2024-04-24T02:16:46.700Z,7.22
2024-04-24T02:20:28.697Z,12.32
2024-04-24T02:24:10.758Z,8.10
2024-04-24T02:27:52.750Z,11.18
2024-04-24T02:31:34.671Z,7.63
2024-04-24T02:35:16.772Z,9.20
2024-04-24T02:38:58.807Z,9.10
2024-04-24T02:42:40.800Z,6.13
2024-04-24T02:46:22.791Z,9.90
2024-04-24T02:50:05.015Z,5.15
2024-04-24T02:53:47.024Z,7.93
2024-04-24T02:57:29.942Z,8.27
2024-04-24T03:01:15.320Z,6.05
2024-04-24T03:04:57.321Z,6.57
2024-04-24T03:08:39.300Z,6.68
2024-04-24T03:12:21.312Z,8.65
2024-04-24T03:16:03.388Z,9.38
2024-04-24T03:19:45.410Z,7.00
2024-04-24T03:23:27.365Z,6.43
2024-04-24T03:27:11.810Z,5.03
2024-04-24T03:30:53.858Z,5.35
2024-04-24T03:34:35.780Z,6.88
2024-04-24T03:38:17.833Z,4.45
2024-04-24T03:41:59.901Z,5.57
2024-04-24T03:45:41.892Z,4.70
2024-04-24T03:49:23.872Z,6.55
2024-04-24T03:53:05.956Z,6.35
2024-04-24T03:56:47.916Z,4.47
2024-04-24T04:00:29.819Z,5.65
2024-04-24T04:04:11.925Z,5.88
2024-04-24T04:08:00.816Z,7.05
2024-04-24T04:11:45.757Z,5.65
2024-04-24T04:15:30.328Z,8.18
2024-04-24T04:19:12.515Z,7.45
2024-04-24T04:22:56.002Z,7.43
2024-04-24T04:26:37.964Z,5.15
2024-04-24T04:30:20.171Z,6.32
2024-04-24T04:34:02.125Z,8.18
2024-04-24T04:37:44.102Z,3.67
2024-04-24T04:41:26.027Z,5.00
2024-04-24T04:45:08.486Z,6.13
2024-04-24T04:48:52.944Z,9.45
2024-04-24T04:52:35.058Z,7.20
2024-04-24T04:56:17.024Z,7.47
2024-04-24T04:59:59.046Z,10.45
2024-04-24T05:03:40.988Z,8.85
2024-04-24T05:07:22.926Z,4.88
2024-04-24T05:11:05.685Z,8.73
2024-04-24T05:14:50.767Z,4.40
2024-04-24T05:18:33.192Z,4.93
2024-04-24T05:22:15.654Z,5.15
2024-04-24T05:25:58.872Z,8.23
2024-04-24T05:29:40.809Z,7.55
2024-04-24T05:33:22.878Z,6.65
2024-04-24T05:37:05.188Z,6.43
2024-04-24T05:40:47.207Z,4.80
2024-04-24T05:44:34.980Z,8.85
2024-04-24T05:48:17.004Z,11.10
2024-04-24T05:51:59.296Z,8.10
2024-04-24T05:55:41.703Z,9.85
2024-04-24T05:59:23.668Z,7.50
2024-04-24T06:03:07.498Z,4.78
2024-04-24T06:06:51.165Z,9.02
2024-04-24T06:10:35.109Z,7.00
2024-04-24T06:14:17.157Z,5.53
2024-04-24T06:17:59.245Z,10.82
2024-04-24T06:21:41.590Z,6.93
2024-04-24T06:25:23.825Z,8.05
2024-04-24T06:29:05.854Z,8.50
2024-04-24T06:32:47.961Z,8.13
2024-04-24T06:36:30.621Z,10.55
2024-04-24T06:40:12.644Z,11.60
2024-04-24T06:43:55.285Z,11.35
2024-04-24T06:47:37.595Z,11.60
2024-04-24T06:51:22.550Z,12.93
2024-04-24T06:55:05.907Z,12.70
2024-04-24T06:58:47.892Z,11.50
2024-04-24T07:02:29.867Z,11.20
2024-04-24T07:06:11.773Z,17.27
2024-04-24T07:09:53.671Z,12.18
2024-04-24T07:13:35.695Z,11.65
2024-04-24T07:17:17.696Z,8.00
2024-04-24T07:20:59.775Z,8.55
2024-04-24T07:24:41.670Z,13.60
2024-04-24T07:28:23.841Z,11.70
2024-04-24T07:32:06.210Z,12.35
2024-04-24T07:35:48.238Z,13.55
2024-04-24T07:39:30.141Z,11.88
2024-04-24T07:43:15.250Z,12.18
2024-04-24T07:46:59.261Z,11.35
2024-04-24T07:50:47.066Z,10.75
2024-04-24T07:54:29.159Z,14.45
2024-04-24T07:58:11.127Z,16.23
2024-04-24T08:01:53.152Z,10.98
2024-04-24T08:05:36.870Z,17.30
2024-04-24T08:09:19.791Z,16.75
2024-04-24T08:13:01.786Z,11.27
2024-04-24T08:16:43.714Z,10.82
2024-04-24T08:20:25.744Z,14.23
2024-04-24T08:24:07.918Z,12.00
2024-04-24T08:27:52.105Z,12.80
2024-04-24T08:31:34.007Z,13.10
2024-04-24T08:35:16.086Z,11.38
2024-04-24T08:38:58.381Z,12.90
2024-04-24T08:42:40.459Z,7.20
2024-04-24T08:46:22.605Z,10.68
2024-04-24T08:50:04.894Z,20.30
2024-04-24T08:53:54.512Z,14.02
2024-04-24T08:57:37.958Z,14.20
2024-04-24T09:01:22.796Z,10.02
2024-04-24T09:05:07.828Z,13.75
2024-04-24T09:08:51.957Z,15.05
2024-04-24T09:12:36.835Z,13.57
2024-04-24T09:16:22.018Z,11.80
2024-04-24T09:20:04.210Z,12.98
2024-04-24T09:23:46.132Z,13.70
2024-04-24T09:27:30.507Z,10.32
2024-04-24T09:31:13.220Z,8.82
2024-04-24T09:34:55.551Z,13.98
2024-04-24T09:38:37.633Z,12.57
2024-04-24T09:42:19.778Z,12.07
2024-04-24T09:46:01.972Z,13.85
2024-04-24T09:49:45.022Z,13.18
2024-04-24T09:53:27.153Z,10.57
2024-04-24T09:57:12.587Z,14.40
2024-04-24T10:00:55.369Z,15.52
2024-04-24T10:04:42.427Z,15.98
2024-04-24T10:08:30.630Z,12.23
2024-04-24T10:12:26.096Z,6.63
2024-04-24T10:16:09.828Z,12.15
2024-04-24T10:19:52.971Z,9.63
2024-04-24T10:23:36.335Z,14.07
2024-04-24T10:27:21.940Z,10.60
2024-04-24T10:31:04.729Z,7.63
2024-04-24T10:34:48.042Z,11.98
2024-04-24T10:38:34.342Z,11.63
2024-04-24T10:42:17.400Z,8.60
2024-04-24T10:46:01.366Z,10.20
2024-04-24T10:49:59.310Z,7.50
2024-04-24T10:53:55.898Z,8.57
2024-04-24T10:57:49.538Z,9.57
2024-04-24T11:01:41.835Z,10.60
2024-04-24T11:05:37.273Z,11.73
2024-04-24T11:09:21.708Z,8.73
2024-04-24T11:13:14.207Z,8.85
2024-04-24T11:16:57.140Z,7.25
2024-04-24T11:20:39.384Z,9.30
2024-04-24T11:24:34.709Z,5.57
2024-04-24T11:28:20.410Z,9.98
2024-04-24T11:32:05.170Z,10.00
2024-04-24T11:35:47.701Z,6.45
2024-04-24T11:39:29.821Z,4.60
2024-04-24T11:43:11.920Z,6.15
2024-04-24T11:46:54.770Z,7.70
2024-04-24T11:50:37.192Z,8.75
2024-04-24T11:54:19.297Z,6.40
2024-04-24T11:58:08.935Z,5.20
2024-04-24T12:01:50.969Z,7.35
2024-04-24T12:05:33.248Z,8.93
2024-04-24T12:09:18.345Z,6.05
2024-04-24T12:13:00.721Z,6.43
2024-04-24T12:16:43.994Z,7.13
2024-04-24T12:20:26.165Z,5.28
2024-04-24T12:24:08.589Z,7.95
2024-04-24T12:27:50.625Z,6.70
2024-04-24T12:31:33.450Z,6.65
2024-04-24T12:35:15.518Z,6.35
2024-04-24T12:38:57.468Z,5.18
2024-04-24T12:42:39.513Z,6.45
2024-04-24T12:46:21.468Z,9.05
2024-04-24T12:50:03.594Z,6.32
2024-04-24T12:53:45.667Z,4.57
2024-04-24T12:57:27.670Z,6.60
2024-04-24T13:01:19.303Z,4.05
2024-04-24T13:05:05.022Z,4.68
2024-04-24T13:08:48.046Z,8.80
2024-04-24T13:12:30.446Z,6.60
2024-04-24T13:16:12.448Z,6.15
2024-04-24T13:19:54.505Z,5.53
2024-04-24T13:23:36.568Z,6.78
2024-04-24T13:27:18.546Z,10.75
2024-04-24T13:31:03.899Z,6.25
2024-04-24T13:34:47.422Z,6.93
2024-04-24T13:38:29.318Z,7.55
2024-04-24T13:42:11.319Z,5.30
2024-04-24T13:45:53.261Z,6.65
2024-04-24T13:49:35.294Z,7.75
2024-04-24T13:53:17.235Z,6.05
2024-04-24T13:56:59.413Z,5.88
2024-04-24T14:00:41.537Z,6.10
2024-04-24T14:04:23.814Z,14.80
2024-04-24T14:08:05.851Z,10.00
2024-04-24T14:11:48.595Z,10.13
2024-04-24T14:15:30.535Z,4.80
2024-04-24T14:19:12.508Z,5.90
2024-04-24T14:22:54.653Z,9.05
2024-04-24T14:26:36.570Z,4.18
2024-04-24T14:30:18.551Z,4.85
2024-04-24T14:34:00.504Z,5.03
2024-04-24T14:37:42.558Z,8.45
2024-04-24T14:41:25.447Z,6.40
2024-04-24T14:45:07.597Z,8.02
2024-04-24T14:48:49.679Z,8.80
2024-04-24T14:52:33.029Z,6.82
2024-04-24T14:56:15.131Z,5.93
2024-04-24T14:59:57.095Z,6.82
2024-04-24T15:03:39.169Z,5.95
2024-04-24T15:07:21.148Z,4.97
2024-04-24T15:11:04.130Z,6.30
2024-04-24T15:14:47.467Z,4.38
2024-04-24T15:18:33.669Z,6.43
2024-04-24T15:22:16.069Z,5.78
2024-04-24T15:25:58.180Z,7.25
2024-04-24T15:29:40.135Z,7.15
2024-04-24T15:33:22.299Z,5.57
2024-04-24T15:37:07.102Z,8.18
2024-04-24T15:40:49.055Z,6.22
2024-04-24T15:44:35.174Z,5.28
2024-04-24T15:48:20.058Z,9.85
2024-04-24T15:52:01.999Z,6.18
2024-04-24T15:55:43.963Z,6.18
2024-04-24T15:59:28.980Z,4.35
2024-04-24T16:03:11.328Z,7.38
2024-04-24T16:06:54.855Z,6.75
2024-04-24T16:10:36.989Z,6.43
2024-04-24T16:14:19.003Z,5.47
2024-04-24T16:18:03.987Z,6.20
2024-04-24T16:21:46.348Z,3.17
2024-04-24T16:25:28.450Z,4.47
2024-04-24T16:29:11.086Z,6.88
2024-04-24T16:32:53.778Z,4.97
2024-04-24T16:36:37.045Z,4.10
2024-04-24T16:40:19.042Z,4.40
2024-04-24T16:44:01.233Z,4.40
2024-04-24T16:47:43.454Z,4.38
2024-04-24T16:51:25.448Z,4.95
2024-04-24T16:55:08.109Z,5.45
2024-04-24T16:58:50.032Z,3.90
2024-04-24T17:02:33.192Z,7.15
2024-04-24T17:06:15.302Z,5.32
2024-04-24T17:09:57.308Z,5.55
2024-04-24T17:13:39.286Z,4.28
2024-04-24T17:17:21.292Z,5.50
2024-04-24T17:21:03.529Z,4.05
2024-04-24T17:24:45.623Z,6.63
2024-04-24T17:28:28.567Z,3.95
2024-04-24T17:32:10.890Z,4.28
2024-04-24T17:35:52.942Z,2.42
2024-04-24T17:39:34.991Z,5.93
2024-04-24T17:43:17.103Z,5.78
2024-04-24T17:46:59.118Z,4.65
2024-04-24T17:50:41.106Z,5.93
2024-04-24T17:54:23.084Z,7.22
2024-04-24T17:58:05.099Z,6.88
2024-04-24T18:01:47.618Z,6.25
2024-04-24T18:05:31.098Z,6.13
2024-04-24T18:09:13.148Z,6.85
2024-04-24T18:12:56.068Z,4.97
2024-04-24T18:16:38.187Z,5.50
2024-04-24T18:20:20.073Z,6.60
2024-04-24T18:24:02.286Z,4.63
2024-04-24T18:27:45.018Z,4.65
2024-04-24T18:31:27.192Z,5.97
2024-04-24T18:35:09.146Z,4.90
2024-04-24T18:38:51.227Z,7.53
2024-04-24T18:42:34.053Z,8.80
2024-04-24T18:46:17.304Z,11.93
2024-04-24T18:49:59.529Z,5.57
2024-04-24T18:53:41.615Z,10.00
2024-04-24T18:57:23.641Z,5.80
2024-04-24T19:01:05.717Z,4.70
2024-04-24T19:04:47.707Z,7.28
2024-04-24T19:08:29.714Z,6.97
2024-04-24T19:12:11.717Z,4.63
2024-04-24T19:15:53.883Z,7.82
2024-04-24T19:19:35.866Z,6.00
2024-04-24T19:23:17.955Z,10.10
2024-04-24T19:27:00.048Z,8.05
2024-04-24T19:30:42.001Z,8.85
2024-04-24T19:34:24.024Z,11.05
2024-04-24T19:38:05.962Z,6.97
2024-04-24T19:41:47.919Z,6.10
2024-04-24T19:45:30.029Z,11.18
2024-04-24T19:49:11.931Z,10.45
2024-04-24T19:52:54.049Z,6.97
2024-04-24T19:56:39.842Z,9.85
2024-04-24T20:00:22.090Z,7.93
2024-04-24T20:04:04.111Z,9.25
2024-04-24T20:07:46.124Z,5.93
2024-04-24T20:11:28.181Z,7.28
2024-04-24T20:15:13.367Z,5.20
2024-04-24T20:18:58.248Z,4.45
2024-04-24T20:22:40.221Z,7.10
2024-04-24T20:26:22.336Z,6.65
2024-04-24T20:30:05.138Z,6.85
2024-04-24T20:33:47.335Z,8.38
2024-04-24T20:37:29.351Z,5.45
2024-04-24T20:41:11.325Z,4.88
2024-04-24T20:44:55.327Z,7.55
2024-04-24T20:48:37.630Z,7.75
2024-04-24T20:52:19.625Z,9.32
2024-04-24T20:56:09.173Z,5.35
2024-04-24T20:59:53.341Z,5.85
2024-04-24T21:03:37.135Z,6.95
2024-04-24T21:07:20.215Z,6.68
2024-04-24T21:11:03.563Z,7.28
2024-04-24T21:14:45.727Z,7.72
2024-04-24T21:18:30.364Z,5.55
2024-04-24T21:22:12.412Z,6.60
2024-04-24T21:25:58.639Z,9.52
2024-04-24T21:29:40.771Z,10.70
2024-04-24T21:33:22.872Z,6.95
2024-04-24T21:37:05.766Z,8.75
2024-04-24T21:40:47.740Z,8.13
2024-04-24T21:44:30.144Z,4.97
2024-04-24T21:48:12.096Z,7.30
2024-04-24T21:51:54.104Z,12.43
2024-04-24T21:55:36.079Z,5.93
2024-04-24T21:59:18.065Z,6.57
2024-04-24T22:03:00.006Z,10.00
2024-04-24T22:06:44.895Z,6.68
2024-04-24T22:10:26.818Z,7.88
2024-04-24T22:14:08.792Z,12.27
2024-04-24T22:17:50.869Z,6.20
2024-04-24T22:21:33.000Z,5.45
2024-04-24T22:25:17.284Z,6.85
2024-04-24T22:28:59.308Z,8.15
2024-04-24T22:32:42.397Z,7.88
2024-04-24T22:36:24.604Z,7.00
2024-04-24T22:40:07.019Z,7.70
2024-04-24T22:43:49.160Z,5.35
2024-04-24T22:47:31.261Z,6.45
2024-04-24T22:51:14.422Z,7.57
2024-04-24T22:54:56.355Z,6.45
2024-04-24T22:58:38.278Z,6.32
2024-04-24T23:02:20.209Z,7.88
2024-04-24T23:06:02.249Z,8.60
2024-04-24T23:09:44.201Z,7.43
2024-04-24T23:13:26.159Z,9.15
2024-04-24T23:17:08.280Z,9.73
2024-04-24T23:20:50.483Z,9.00
2024-04-24T23:24:32.425Z,8.88
2024-04-24T23:28:14.383Z,6.97
2024-04-24T23:31:56.404Z,9.73
2024-04-24T23:35:38.477Z,7.75
2024-04-24T23:39:20.409Z,6.43
2024-04-24T23:43:02.319Z,9.27
2024-04-24T23:46:44.346Z,8.00
2024-04-24T23:50:26.356Z,7.93
2024-04-24T23:54:08.296Z,8.05
2024-04-24T23:57:50.276Z,11.15
